Avoca, Michigan
Current Conditions -  °F | °C
As of 7:36 PM on Tuesday 25 Nov 2014 (Local Time) from KPHN Reporting Station
Overcast Overcast  
Wind Chill:   Ceiling: 2900
Heat Index:   Visibility: 10mi
Dew Point: -4°   Wind: 3mph
Humidity: 75%   Direction: 230°SW
Pressure: 30.14"   Gusts: NA
Location:  43.06°N, 82.69°W
Report Text: KPHN 260036Z AUTO 23003KT 10SM OVC029 M00/M04 A3014 RMK AO2
Loading
Personal Weather Stations






























Interactive Weather Map New forecast layout! Learn more

10-Day Weather Forecast

Advertisements
Track Severe Weather on mobile